Terminal Aerodrome Forecast
Issued by NWS Sterling, VA

Current Version | Previous Version | Graphics & Text | Print | Product List | Glossary On
Versions: 1 2 3 4 5 6 7 8 9 10 11 12 13 14 15 16 17 18 19 20 21 22 23 24
000
FTUS41 KLWX 151459 AAA
TAFDCA
TAF AMD
KDCA 151459Z 1515/1618 09005KT P6SM OVC050
     FM151600 VRB04KT 2SM -SN BKN008 OVC030
     FM152100 VRB04KT P6SM BKN040
     FM160000 26005KT P6SM SCT250
     FM161700 25010G17KT P6SM SCT050=

USA.gov is the U.S. government's official web portal to all federal, state and local government web resources and services.